Time;durP1;ratioP1;P1;durP2;ratioP2;P2;SDS_P1;SDS_P2;PMS_P1;PMS_P2;Temp;Humidity;BMP_temperature;BMP_pressure;BME280_temperature;BME280_humidity;BME280_pressure;Samples;Min_cycle;Max_cycle;Signal;HPM_P1;HPM_P2
2023/02/25 00:00:29;;;;;;;4.57;3.87;;;8.60;63.90;;;;;;5078675;28;20223;-86
2023/02/25 00:02:57;;;;;;;5.93;4.20;;;8.60;65.30;;;;;;5079525;28;20252;-85
2023/02/25 00:05:23;;;;;;;4.87;4.47;;;8.60;64.70;;;;;;5078414;28;20696;-85
2023/02/25 00:07:51;;;;;;;6.20;4.90;;;8.50;66.70;;;;;;5079011;28;20202;-85
2023/02/25 00:10:16;;;;;;;5.90;5.00;;;8.40;65.30;;;;;;5079083;28;20642;-85
2023/02/25 00:12:42;;;;;;;7.13;4.40;;;8.30;66.00;;;;;;5072964;28;20183;-86
2023/02/25 00:15:09;;;;;;;5.67;5.07;;;8.30;67.10;;;;;;5099986;28;20187;-84
2023/02/25 00:17:38;;;;;;;4.93;4.27;;;8.30;67.40;;;;;;5100493;28;20194;-84
2023/02/25 00:20:08;;;;;;;6.47;4.93;;;8.30;67.30;;;;;;5100906;28;20870;-85
2023/02/25 00:22:35;;;;;;;6.30;5.17;;;8.20;66.10;;;;;;5080713;28;20212;-85
2023/02/25 00:25:00;;;;;;;5.53;4.30;;;8.10;66.30;;;;;;5079723;28;20187;-84
2023/02/25 00:27:27;;;;;;;5.97;4.90;;;8.20;67.00;;;;;;5080108;28;20183;-85
2023/02/25 00:29:53;;;;;;;5.90;4.97;;;8.20;66.40;;;;;;5096030;28;20198;-86
2023/02/25 00:32:20;;;;;;;7.13;4.93;;;8.20;66.60;;;;;;5102734;28;20286;-85
2023/02/25 00:34:46;;;;;;;5.33;4.47;;;8.20;66.80;;;;;;5101562;28;20186;-86
2023/02/25 00:37:13;;;;;;;7.17;4.77;;;8.30;67.20;;;;;;5101103;28;20203;-86
2023/02/25 00:39:41;;;;;;;5.43;4.77;;;8.30;66.90;;;;;;5097969;28;20202;-86
2023/02/25 00:42:13;;;;;;;5.90;4.53;;;8.30;66.80;;;;;;5098022;28;20179;-85
2023/02/25 00:44:39;;;;;;;7.13;4.70;;;8.30;66.90;;;;;;5097036;28;20171;-84
2023/02/25 00:47:05;;;;;;;5.80;4.73;;;8.30;67.20;;;;;;5098007;28;20636;-85
2023/02/25 00:49:32;;;;;;;7.63;5.40;;;8.20;66.30;;;;;;5098232;28;20195;-85
2023/02/25 00:51:58;;;;;;;8.10;4.97;;;8.20;68.50;;;;;;5096032;28;20250;-86
2023/02/25 00:54:24;;;;;;;5.30;4.80;;;8.20;67.80;;;;;;5080579;28;20176;-85
2023/02/25 00:56:50;;;;;;;6.83;5.23;;;8.20;66.60;;;;;;5078641;28;20187;-86
2023/02/25 00:59:15;;;;;;;7.87;5.03;;;8.20;66.70;;;;;;5079203;28;20724;-85
2023/02/25 01:01:41;;;;;;;5.77;4.47;;;8.10;67.70;;;;;;5080301;28;20196;-85
2023/02/25 01:04:08;;;;;;;6.07;4.97;;;8.00;66.70;;;;;;5079369;28;20207;-84
2023/02/25 01:06:35;;;;;;;6.53;5.33;;;7.90;68.80;;;;;;5079821;28;20201;-84
2023/02/25 01:09:02;;;;;;;5.63;5.03;;;8.00;68.50;;;;;;5080803;28;20172;-84
2023/02/25 01:11:31;;;;;;;8.13;5.37;;;7.90;69.80;;;;;;5080395;28;20172;-85
2023/02/25 01:14:06;;;;;;;8.00;5.20;;;7.90;69.50;;;;;;5080856;28;20184;-86
2023/02/25 01:16:34;;;;;;;6.67;5.33;;;7.90;69.20;;;;;;5080448;28;20640;-85
2023/02/25 01:19:03;;;;;;;7.00;5.03;;;7.90;70.10;;;;;;5080565;28;20187;-85
2023/02/25 01:21:41;;;;;;;8.07;6.30;;;7.90;71.20;;;;;;5078632;28;20213;-85
2023/02/25 01:24:19;;;;;;;7.40;5.47;;;7.80;71.10;;;;;;5080979;28;20206;-85
2023/02/25 01:26:47;;;;;;;7.57;5.70;;;7.70;71.80;;;;;;5080617;28;20174;-85
2023/02/25 01:29:16;;;;;;;8.73;6.40;;;7.70;73.20;;;;;;5080452;28;20628;-85
2023/02/25 01:31:43;;;;;;;8.07;6.07;;;7.60;73.00;;;;;;5082977;28;20167;-86
2023/02/25 01:34:13;;;;;;;6.83;5.37;;;7.70;74.30;;;;;;5067668;28;20229;-82
2023/02/25 01:36:38;;;;;;;7.13;5.97;;;7.70;74.30;;;;;;5098196;28;20195;-85
2023/02/25 01:39:04;;;;;;;8.27;5.77;;;7.60;74.80;;;;;;5106348;28;20269;-85
2023/02/25 01:41:32;;;;;;;6.87;6.17;;;7.70;74.80;;;;;;5107352;28;20205;-86
2023/02/25 01:44:20;;;;;;;6.20;5.60;;;7.70;74.80;;;;;;5097602;28;20194;-84
2023/02/25 01:46:48;;;;;;;7.90;5.50;;;7.70;74.80;;;;;;5080329;28;20582;-85
2023/02/25 01:49:23;;;;;;;6.43;5.83;;;7.80;73.50;;;;;;5088577;28;20262;-85
2023/02/25 01:51:52;;;;;;;8.80;5.90;;;7.80;73.00;;;;;;5090780;28;20257;-84
2023/02/25 01:54:19;;;;;;;7.10;5.30;;;7.80;70.30;;;;;;5083987;28;20197;-86
2023/02/25 01:56:50;;;;;;;6.37;4.70;;;7.70;71.20;;;;;;5092906;28;20168;-87
2023/02/25 01:59:17;;;;;;;6.23;4.53;;;7.70;69.60;;;;;;5094442;28;20160;-87
2023/02/25 02:01:43;;;;;;;6.87;4.43;;;7.70;68.70;;;;;;5095041;28;20193;-88
2023/02/25 02:04:11;;;;;;;6.47;4.13;;;7.70;68.60;;;;;;5100151;28;20264;-85
2023/02/25 02:06:40;;;;;;;5.13;3.83;;;7.70;66.50;;;;;;5100077;28;20232;-85
2023/02/25 02:09:09;;;;;;;5.50;3.90;;;7.70;67.60;;;;;;5092418;28;20190;-87
2023/02/25 02:11:34;;;;;;;5.17;3.67;;;7.70;66.30;;;;;;5079356;28;20180;-82
2023/02/25 02:14:02;;;;;;;4.83;3.93;;;7.70;66.20;;;;;;5080075;28;20191;-85
2023/02/25 02:16:31;;;;;;;3.80;3.40;;;7.70;65.80;;;;;;5095182;28;20191;-84
2023/02/25 02:19:20;;;;;;;4.87;3.67;;;7.70;65.90;;;;;;5061185;28;20650;-85
2023/02/25 02:21:54;;;;;;;4.37;3.47;;;7.80;66.50;;;;;;5077761;28;20196;-85
2023/02/25 02:24:29;;;;;;;5.03;3.40;;;7.70;64.90;;;;;;5078050;28;20248;-85
2023/02/25 02:27:02;;;;;;;3.93;3.23;;;7.70;65.20;;;;;;5077834;28;20192;-85
2023/02/25 02:30:05;;;;;;;4.87;3.10;;;7.70;64.80;;;;;;5077779;28;20203;-84
2023/02/25 02:32:38;;;;;;;4.47;3.50;;;7.70;66.10;;;;;;5077659;28;20270;-85
2023/02/25 02:35:11;;;;;;;5.57;3.57;;;7.70;66.50;;;;;;5093064;28;20264;-83
2023/02/25 02:38:03;;;;;;;4.10;3.30;;;7.60;67.20;;;;;;5102029;28;20201;-84
2023/02/25 02:41:04;;;;;;;5.43;3.10;;;7.70;64.50;;;;;;5101431;28;20206;-86
2023/02/25 02:43:35;;;;;;;3.23;2.73;;;7.70;63.70;;;;;;5101262;28;20216;-85
2023/02/25 02:46:14;;;;;;;4.80;3.20;;;7.70;65.10;;;;;;5090975;28;20433;-83
2023/02/25 02:48:52;;;;;;;3.70;2.77;;;7.70;65.00;;;;;;5059316;28;20169;-84
2023/02/25 02:51:25;;;;;;;4.57;3.50;;;7.70;67.60;;;;;;5084210;28;20202;-85
2023/02/25 02:53:56;;;;;;;3.50;2.90;;;7.60;65.60;;;;;;5101677;28;20235;-83
2023/02/25 02:56:25;;;;;;;3.30;3.00;;;7.60;68.90;;;;;;5100167;28;20201;-85
2023/02/25 02:58:58;;;;;;;3.50;2.80;;;7.60;68.90;;;;;;5100704;28;20175;-84
2023/02/25 03:01:30;;;;;;;3.27;2.63;;;7.60;68.80;;;;;;5102164;28;20259;-84
2023/02/25 03:04:02;;;;;;;2.70;2.43;;;7.50;64.30;;;;;;5103003;28;20199;-84
2023/02/25 03:06:38;;;;;;;5.40;2.80;;;7.40;64.10;;;;;;5103832;28;20232;-84
2023/02/25 03:09:17;;;;;;;3.70;2.57;;;7.40;65.10;;;;;;5073323;28;20186;-85
2023/02/25 03:11:43;;;;;;;3.33;2.60;;;7.30;65.80;;;;;;5103711;28;20191;-85
2023/02/25 03:14:10;;;;;;;2.63;2.37;;;7.20;66.00;;;;;;5095743;28;20282;-85
2023/02/25 03:16:56;;;;;;;2.80;2.10;;;7.10;65.10;;;;;;5081519;28;20209;-86
2023/02/25 03:19:34;;;;;;;4.00;2.23;;;7.10;64.40;;;;;;5082017;28;20245;-84
2023/02/25 03:22:08;;;;;;;7.20;2.67;;;7.10;65.90;;;;;;5066216;28;20182;-85
2023/02/25 03:24:44;;;;;;;2.53;1.90;;;7.00;66.40;;;;;;5097496;28;20186;-85
2023/02/25 03:27:33;;;;;;;2.23;2.00;;;7.00;66.10;;;;;;5100647;28;20266;-84
2023/02/25 03:30:33;;;;;;;2.73;2.17;;;6.90;66.00;;;;;;5101845;28;20218;-83
2023/02/25 03:33:23;;;;;;;3.63;2.30;;;6.90;66.50;;;;;;5097024;28;20207;-85
2023/02/25 03:35:50;;;;;;;2.73;1.83;;;6.90;66.30;;;;;;5099390;28;20174;-84
2023/02/25 03:38:21;;;;;;;4.33;2.00;;;6.90;66.00;;;;;;5099983;28;20247;-87
2023/02/25 03:40:49;;;;;;;3.33;2.40;;;6.90;67.20;;;;;;5096670;28;20232;-86
2023/02/25 03:43:24;;;;;;;3.43;2.47;;;6.90;67.00;;;;;;5094358;28;20237;-84
2023/02/25 03:45:50;;;;;;;3.00;2.00;;;6.80;66.10;;;;;;5099076;28;20175;-83
2023/02/25 03:48:18;;;;;;;2.50;2.00;;;6.90;67.80;;;;;;5099696;28;20167;-85
2023/02/25 03:50:52;;;;;;;2.10;1.90;;;6.90;67.00;;;;;;5100305;28;20277;-85
2023/02/25 03:53:19;;;;;;;2.53;2.00;;;6.90;68.90;;;;;;5101210;28;20171;-85
2023/02/25 03:55:46;;;;;;;2.50;1.80;;;6.80;68.30;;;;;;5099077;28;20171;-87
2023/02/25 03:58:11;;;;;;;2.00;1.80;;;6.80;66.90;;;;;;5100953;28;20178;-85
2023/02/25 04:00:39;;;;;;;5.10;2.27;;;6.90;68.00;;;;;;5105784;28;20221;-82
2023/02/25 04:03:05;;;;;;;3.83;1.90;;;6.90;68.40;;;;;;5093322;28;20333;-86
2023/02/25 04:05:31;;;;;;;2.50;2.20;;;6.90;69.40;;;;;;5111110;28;20226;-84
2023/02/25 04:07:58;;;;;;;3.50;2.10;;;7.00;71.10;;;;;;5112243;28;20186;-84
2023/02/25 04:10:24;;;;;;;1.80;1.70;;;7.00;68.20;;;;;;5094645;28;20193;-83
2023/02/25 04:12:50;;;;;;;3.67;2.13;;;7.10;69.10;;;;;;5104854;28;20206;-84
2023/02/25 04:15:17;;;;;;;3.23;2.07;;;7.10;67.70;;;;;;5098269;28;20820;-85
2023/02/25 04:17:46;;;;;;;2.30;2.10;;;7.10;67.60;;;;;;5060748;28;20188;-84
2023/02/25 04:20:16;;;;;;;2.83;1.90;;;7.20;69.10;;;;;;5060752;28;20210;-86
2023/02/25 04:22:41;;;;;;;3.47;1.90;;;7.20;68.80;;;;;;5060981;28;20207;-85
2023/02/25 04:25:09;;;;;;;2.10;1.90;;;7.20;66.50;;;;;;5064472;28;20184;-84
2023/02/25 04:27:35;;;;;;;1.93;1.73;;;7.10;67.00;;;;;;5080044;28;20308;-84
2023/02/25 04:30:00;;;;;;;3.10;2.00;;;7.10;61.10;;;;;;5060821;28;20716;-84
2023/02/25 04:32:26;;;;;;;2.63;2.07;;;6.80;62.70;;;;;;5079186;28;20252;-86
2023/02/25 04:34:51;;;;;;;3.93;2.00;;;6.80;62.60;;;;;;5079495;28;20184;-85
2023/02/25 04:37:17;;;;;;;2.17;1.97;;;6.70;62.00;;;;;;5063298;28;20198;-84
2023/02/25 04:39:43;;;;;;;2.10;1.90;;;6.60;66.20;;;;;;5092138;28;20220;-85
2023/02/25 04:42:08;;;;;;;3.80;2.10;;;6.60;64.70;;;;;;5079685;28;20251;-84
2023/02/25 04:44:34;;;;;;;4.00;1.93;;;6.60;63.40;;;;;;5078581;28;20275;-85
2023/02/25 04:47:00;;;;;;;3.43;1.90;;;6.40;63.70;;;;;;5078258;28;20182;-85
2023/02/25 04:49:26;;;;;;;4.60;1.70;;;6.40;66.00;;;;;;5078940;28;20942;-86
2023/02/25 04:51:52;;;;;;;2.97;1.83;;;6.30;63.80;;;;;;5078031;28;20186;-85
2023/02/25 04:54:18;;;;;;;3.23;1.60;;;6.10;64.50;;;;;;5078922;28;20183;-81
2023/02/25 04:56:44;;;;;;;4.30;1.90;;;6.00;65.10;;;;;;5089361;28;20191;-85
2023/02/25 04:59:11;;;;;;;1.87;1.77;;;5.90;64.70;;;;;;5100458;28;20262;-85
2023/02/25 05:01:37;;;;;;;3.37;2.07;;;5.90;65.30;;;;;;5100756;28;20195;-85
2023/02/25 05:04:03;;;;;;;1.80;1.60;;;6.00;65.50;;;;;;5099913;28;20259;-85
2023/02/25 05:06:29;;;;;;;6.13;2.33;;;6.10;65.00;;;;;;5100414;28;20183;-85
2023/02/25 05:08:57;;;;;;;4.90;1.80;;;6.10;64.70;;;;;;5099655;28;20621;-84
2023/02/25 05:11:24;;;;;;;2.60;2.20;;;6.10;64.70;;;;;;5100091;28;20589;-83
2023/02/25 05:13:50;;;;;;;3.33;1.93;;;6.10;65.90;;;;;;5098575;28;20179;-84
2023/02/25 05:16:17;;;;;;;3.23;1.77;;;6.10;66.30;;;;;;5100273;28;20189;-84
2023/02/25 05:18:45;;;;;;;2.57;2.10;;;6.20;66.00;;;;;;5099349;28;20209;-84
2023/02/25 05:21:13;;;;;;;4.13;3.40;;;6.20;66.00;;;;;;5089679;28;20628;-85
2023/02/25 05:23:40;;;;;;;2.53;1.77;;;6.20;67.30;;;;;;5076611;28;20235;-85
2023/02/25 05:26:07;;;;;;;3.50;2.10;;;6.20;67.00;;;;;;5058275;28;20277;-85
2023/02/25 05:28:34;;;;;;;1.80;1.70;;;6.20;66.30;;;;;;5085168;28;20198;-86
2023/02/25 05:31:03;;;;;;;6.43;2.70;;;6.20;66.20;;;;;;5078325;28;20199;-84
2023/02/25 05:33:29;;;;;;;2.30;2.10;;;6.30;66.00;;;;;;5078448;28;20215;-85
2023/02/25 05:35:55;;;;;;;3.60;2.20;;;6.20;66.80;;;;;;5089219;28;20183;-84
2023/02/25 05:38:20;;;;;;;4.07;2.00;;;6.20;66.90;;;;;;5101835;28;20228;-85
2023/02/25 05:40:46;;;;;;;3.17;1.90;;;6.20;66.80;;;;;;5102742;28;20305;-84
2023/02/25 05:43:12;;;;;;;3.27;1.80;;;6.20;65.50;;;;;;5078890;28;20203;-85
2023/02/25 05:45:38;;;;;;;3.40;2.17;;;6.20;67.20;;;;;;5078075;28;20175;-85
2023/02/25 05:48:03;;;;;;;3.30;2.20;;;6.10;65.10;;;;;;5078599;28;20191;-85
2023/02/25 05:50:30;;;;;;;2.00;1.80;;;6.10;68.20;;;;;;5079216;28;20237;-84
2023/02/25 05:52:56;;;;;;;2.37;1.47;;;6.30;65.70;;;;;;5080247;28;20210;-83
2023/02/25 05:55:23;;;;;;;3.00;1.77;;;6.20;65.70;;;;;;5079383;28;20252;-85
2023/02/25 05:57:48;;;;;;;4.83;2.43;;;6.30;65.30;;;;;;5078727;28;20721;-84
2023/02/25 06:00:14;;;;;;;7.07;3.80;;;6.30;64.10;;;;;;5077830;28;20245;-85
2023/02/25 06:02:41;;;;;;;2.33;2.00;;;6.30;64.20;;;;;;5078084;28;20681;-85
2023/02/25 06:05:07;;;;;;;6.73;4.03;;;6.20;64.60;;;;;;5078277;28;20176;-85
2023/02/25 06:07:33;;;;;;;3.87;2.40;;;6.20;64.60;;;;;;5062134;28;20175;-84
2023/02/25 06:09:59;;;;;;;2.20;1.93;;;6.20;63.80;;;;;;5085381;28;20265;-84
2023/02/25 06:12:30;;;;;;;2.37;1.93;;;6.10;66.00;;;;;;5084923;28;20207;-84
2023/02/25 06:14:56;;;;;;;1.97;1.77;;;6.10;63.60;;;;;;5084530;28;20238;-84
2023/02/25 06:17:23;;;;;;;3.70;1.83;;;6.00;63.00;;;;;;5085559;28;20675;-84
2023/02/25 06:19:50;;;;;;;2.23;1.90;;;6.00;63.70;;;;;;5083316;28;20200;-85
2023/02/25 06:22:17;;;;;;;4.50;1.77;;;5.80;64.40;;;;;;5083581;28;20175;-84
2023/02/25 06:24:44;;;;;;;4.00;2.00;;;5.60;65.60;;;;;;5065248;28;20207;-85
2023/02/25 06:27:09;;;;;;;2.47;1.83;;;5.60;66.10;;;;;;5112249;28;20208;-87
2023/02/25 06:29:40;;;;;;;63.53;58.47;;;5.80;66.00;;;;;;5094753;28;20262;-86
2023/02/25 06:32:07;;;;;;;7.83;6.70;;;5.90;65.80;;;;;;5111811;28;20205;-86
2023/02/25 06:34:33;;;;;;;5.07;4.57;;;6.00;65.10;;;;;;5105760;28;20186;-85
2023/02/25 06:36:59;;;;;;;4.07;2.17;;;6.10;66.80;;;;;;5090043;28;20172;-88
2023/02/25 06:39:25;;;;;;;10.20;6.73;;;6.10;64.00;;;;;;5082010;28;20763;-86
2023/02/25 06:41:51;;;;;;;7.20;3.23;;;6.20;64.50;;;;;;5064700;28;20231;-85
2023/02/25 06:44:17;;;;;;;6.93;5.87;;;6.10;65.20;;;;;;5081945;28;20477;-85
2023/02/25 06:46:43;;;;;;;40.17;36.77;;;6.10;66.10;;;;;;5080953;28;20179;-85
2023/02/25 06:49:08;;;;;;;8.07;5.70;;;6.20;66.30;;;;;;5082608;28;20191;-86
2023/02/25 06:51:34;;;;;;;4.87;2.77;;;6.30;67.00;;;;;;5083809;28;20179;-84
2023/02/25 06:54:01;;;;;;;6.03;2.70;;;6.20;66.60;;;;;;5085327;28;20196;-84
2023/02/25 06:56:28;;;;;;;3.00;2.10;;;6.10;67.10;;;;;;5097566;28;20555;-85
2023/02/25 06:58:55;;;;;;;3.70;2.70;;;6.20;65.30;;;;;;5065409;28;20238;-85
2023/02/25 07:01:21;;;;;;;3.87;2.40;;;6.20;66.30;;;;;;5081841;28;20768;-83
2023/02/25 07:03:47;;;;;;;3.43;2.67;;;6.00;66.30;;;;;;5064138;28;20247;-84
2023/02/25 07:06:14;;;;;;;2.37;2.17;;;6.10;68.90;;;;;;5063242;28;20179;-85
2023/02/25 07:08:40;;;;;;;5.70;2.60;;;6.20;65.90;;;;;;5082177;28;20176;-83
2023/02/25 07:11:10;;;;;;;3.63;2.53;;;6.10;66.30;;;;;;5082871;28;20573;-83
2023/02/25 07:13:36;;;;;;;4.10;2.50;;;6.10;66.60;;;;;;5081466;28;20185;-85
2023/02/25 07:16:01;;;;;;;5.03;2.40;;;6.10;65.60;;;;;;5082520;28;20179;-83
2023/02/25 07:18:27;;;;;;;5.17;3.03;;;6.10;66.00;;;;;;5062745;28;20188;-86
2023/02/25 07:20:53;;;;;;;6.70;3.10;;;6.10;65.40;;;;;;5078820;28;20210;-85
2023/02/25 07:23:18;;;;;;;3.90;2.70;;;6.20;66.00;;;;;;5076653;28;20204;-86
2023/02/25 07:25:45;;;;;;;4.67;2.57;;;6.20;64.50;;;;;;5077685;28;20877;-85
2023/02/25 07:28:11;;;;;;;4.27;2.70;;;6.20;64.60;;;;;;5078575;28;20271;-85
2023/02/25 07:30:36;;;;;;;7.63;3.00;;;6.20;65.20;;;;;;5078643;28;20227;-84
2023/02/25 07:33:02;;;;;;;3.27;2.97;;;6.30;65.40;;;;;;5079481;28;20172;-85
2023/02/25 07:35:28;;;;;;;6.30;2.80;;;6.30;65.50;;;;;;5079408;28;20263;-85
2023/02/25 07:37:53;;;;;;;6.57;2.80;;;6.20;65.10;;;;;;5098547;28;20265;-84
2023/02/25 07:40:19;;;;;;;4.13;2.30;;;6.20;66.30;;;;;;5098244;28;20546;-84
2023/02/25 07:42:44;;;;;;;5.07;2.50;;;6.30;66.70;;;;;;5099349;28;20258;-85
2023/02/25 07:45:10;;;;;;;4.97;2.67;;;6.30;67.50;;;;;;5083905;28;20183;-83
2023/02/25 07:47:37;;;;;;;5.03;2.73;;;6.30;65.60;;;;;;5079045;28;20180;-82
2023/02/25 07:50:05;;;;;;;4.10;2.47;;;6.30;66.10;;;;;;5078695;28;20199;-84
2023/02/25 07:52:31;;;;;;;4.10;2.27;;;6.40;66.30;;;;;;5078917;28;20191;-87
2023/02/25 07:54:56;;;;;;;4.23;2.63;;;6.50;62.10;;;;;;5060608;28;20191;-87
2023/02/25 07:57:22;;;;;;;2.90;2.60;;;6.50;62.10;;;;;;5079351;28;20183;-84
2023/02/25 07:59:48;;;;;;;4.63;2.50;;;6.50;60.40;;;;;;5087848;28;20267;-83
2023/02/25 08:02:14;;;;;;;4.67;2.13;;;6.50;61.50;;;;;;5078593;28;20230;-85
2023/02/25 08:04:39;;;;;;;4.70;2.27;;;6.70;60.00;;;;;;5080051;28;20184;-85
2023/02/25 08:07:05;;;;;;;4.73;2.43;;;6.70;58.50;;;;;;5085856;28;20197;-84
2023/02/25 08:09:31;;;;;;;4.23;2.23;;;6.80;60.10;;;;;;5081769;28;20689;-87
2023/02/25 08:11:57;;;;;;;4.60;2.80;;;6.80;60.10;;;;;;5061675;28;20248;-86
2023/02/25 08:14:22;;;;;;;3.03;2.40;;;6.80;58.50;;;;;;5081069;28;20266;-87
2023/02/25 08:16:49;;;;;;;5.47;2.73;;;6.80;59.40;;;;;;5078620;28;20653;-85
2023/02/25 08:19:14;;;;;;;3.83;2.30;;;6.90;60.20;;;;;;5072251;28;20328;-84
2023/02/25 08:21:40;;;;;;;4.70;2.50;;;6.90;58.20;;;;;;5064587;28;20217;-85
2023/02/25 08:24:07;;;;;;;6.00;2.20;;;6.90;59.10;;;;;;5087000;28;20202;-84
2023/02/25 08:26:33;;;;;;;3.30;2.60;;;6.80;59.10;;;;;;5075967;28;20233;-84
2023/02/25 08:28:59;;;;;;;5.93;2.53;;;6.70;60.10;;;;;;5075666;28;20277;-84
2023/02/25 08:31:25;;;;;;;7.37;2.90;;;6.80;59.60;;;;;;5075945;28;20206;-84
2023/02/25 08:33:51;;;;;;;4.60;3.03;;;6.80;62.10;;;;;;5076298;28;20764;-87
2023/02/25 08:36:26;;;;;;;6.63;3.07;;;6.80;61.60;;;;;;5076342;28;20207;-83
2023/02/25 08:38:54;;;;;;;8.77;3.77;;;6.90;62.50;;;;;;5077062;28;20175;-85
2023/02/25 08:41:20;;;;;;;7.23;3.33;;;6.90;63.10;;;;;;5094909;28;20213;-86
2023/02/25 08:43:53;;;;;;;6.77;3.20;;;7.00;63.60;;;;;;5083366;28;20211;-84
2023/02/25 08:46:19;;;;;;;6.10;3.37;;;6.80;63.90;;;;;;5093087;28;20203;-86
2023/02/25 08:48:48;;;;;;;9.20;3.30;;;7.00;66.20;;;;;;5096580;28;20179;-86
2023/02/25 08:51:14;;;;;;;5.27;3.13;;;7.00;64.30;;;;;;5090219;28;20677;-86
2023/02/25 08:53:40;;;;;;;4.30;3.10;;;6.90;64.50;;;;;;5081071;28;20183;-87
2023/02/25 08:56:11;;;;;;;5.30;3.30;;;7.00;65.00;;;;;;5075570;28;20183;-85
2023/02/25 08:58:38;;;;;;;5.60;3.20;;;6.90;64.10;;;;;;5075494;28;20645;-83
2023/02/25 09:01:13;;;;;;;5.10;3.03;;;7.00;64.30;;;;;;5075051;28;20215;-86
2023/02/25 09:03:52;;;;;;;5.67;3.53;;;6.90;64.10;;;;;;5081113;28;20214;-84
2023/02/25 09:06:23;;;;;;;6.93;3.50;;;6.90;64.60;;;;;;5078755;28;20214;-84
2023/02/25 09:08:50;;;;;;;12.40;9.93;;;7.10;62.20;;;;;;5077591;28;20259;-85
2023/02/25 09:11:16;;;;;;;5.30;3.63;;;7.10;62.40;;;;;;5076448;28;20200;-86
2023/02/25 09:13:42;;;;;;;3.90;3.03;;;7.00;61.60;;;;;;5063364;28;20195;-84
2023/02/25 09:16:08;;;;;;;5.30;3.27;;;6.90;62.90;;;;;;5076521;28;20183;-85
2023/02/25 09:18:33;;;;;;;5.67;3.20;;;6.80;62.20;;;;;;5077924;28;20252;-84
2023/02/25 09:20:59;;;;;;;5.43;2.93;;;6.90;63.20;;;;;;5068064;28;20218;-82
2023/02/25 09:23:25;;;;;;;5.37;2.90;;;7.00;61.30;;;;;;5065149;28;20222;-83
2023/02/25 09:25:50;;;;;;;4.00;2.77;;;7.00;60.40;;;;;;5067098;28;20202;-82
2023/02/25 09:28:16;;;;;;;4.27;2.73;;;7.00;60.70;;;;;;5050432;28;20194;-85
2023/02/25 09:30:46;;;;;;;5.43;3.43;;;7.00;61.70;;;;;;5065065;28;20218;-85
2023/02/25 09:33:13;;;;;;;4.63;2.83;;;7.00;61.30;;;;;;5066683;28;21770;-86
2023/02/25 09:35:39;;;;;;;6.67;3.07;;;7.10;61.70;;;;;;5067939;28;20190;-84
2023/02/25 09:38:05;;;;;;;5.43;3.17;;;7.30;62.60;;;;;;5068555;28;20188;-86
2023/02/25 09:40:31;;;;;;;5.67;2.67;;;7.20;61.30;;;;;;5067917;28;20183;-84
2023/02/25 09:43:07;;;;;;;9.83;3.20;;;7.20;62.40;;;;;;5071858;28;20700;-82
2023/02/25 09:45:35;;;;;;;7.33;2.97;;;7.30;61.20;;;;;;5072426;28;20730;-83
2023/02/25 09:48:11;;;;;;;5.17;3.00;;;7.10;60.90;;;;;;5069952;28;20254;-85
2023/02/25 09:50:45;;;;;;;5.47;3.00;;;7.30;59.90;;;;;;5069329;28;20211;-85
2023/02/25 09:53:20;;;;;;;6.80;2.80;;;7.10;61.60;;;;;;5073672;28;20241;-86
2023/02/25 09:55:52;;;;;;;5.57;3.20;;;7.20;58.50;;;;;;5071898;28;20185;-86
2023/02/25 09:58:30;;;;;;;5.77;2.80;;;7.30;59.90;;;;;;5070608;28;20229;-86
2023/02/25 10:01:10;;;;;;;5.47;2.83;;;7.20;58.50;;;;;;5068748;28;20286;-85
2023/02/25 10:03:55;;;;;;;4.73;2.77;;;7.10;58.20;;;;;;5073131;28;20206;-85
2023/02/25 10:06:42;;;;;;;5.97;3.00;;;7.10;59.90;;;;;;5068204;28;20214;-84
2023/02/25 10:09:08;;;;;;;6.27;2.97;;;7.30;57.80;;;;;;5076017;28;20183;-85
2023/02/25 10:11:45;;;;;;;3.00;2.50;;;7.40;58.40;;;;;;5071705;28;20203;-80
2023/02/25 10:14:19;;;;;;;5.07;2.80;;;7.40;58.60;;;;;;5073234;28;20579;-82
2023/02/25 10:17:02;;;;;;;14.90;10.87;;;7.50;58.90;;;;;;5072301;28;20321;-84
2023/02/25 10:19:27;;;;;;;12.23;7.17;;;7.60;59.30;;;;;;5070587;28;20409;-83
2023/02/25 10:22:27;;;;;;;13.57;11.93;;;7.70;58.30;;;;;;5074946;28;20176;-85
2023/02/25 10:25:02;;;;;;;8.50;6.17;;;7.80;53.10;;;;;;5093853;28;20191;-82
2023/02/25 10:27:30;;;;;;;5.37;2.63;;;7.70;54.00;;;;;;5075469;28;20171;-84
2023/02/25 10:30:04;;;;;;;3.53;2.73;;;7.90;53.70;;;;;;5072348;28;20261;-85
2023/02/25 10:32:34;;;;;;;7.03;5.93;;;7.70;52.00;;;;;;5070731;28;20180;-87
2023/02/25 10:35:11;;;;;;;6.57;5.63;;;7.70;52.20;;;;;;5075518;28;20252;-85
2023/02/25 10:37:37;;;;;;;17.07;15.33;;;7.80;51.90;;;;;;5075434;28;20265;-88
2023/02/25 10:40:09;;;;;;;96.03;86.50;;;7.80;53.10;;;;;;5070826;28;20207;-85
2023/02/25 10:42:35;;;;;;;13.20;10.10;;;7.90;52.70;;;;;;5072300;28;20211;-85
2023/02/25 10:45:08;;;;;;;7.00;6.10;;;7.90;52.20;;;;;;5077834;28;20179;-83
2023/02/25 10:47:36;;;;;;;5.03;4.37;;;7.90;51.80;;;;;;5076427;28;20209;-86
2023/02/25 10:50:21;;;;;;;6.93;4.93;;;7.90;52.50;;;;;;5073038;28;20355;-85
2023/02/25 10:53:02;;;;;;;4.73;3.97;;;7.90;53.50;;;;;;5071348;28;20429;-86
2023/02/25 10:55:31;;;;;;;4.70;3.67;;;7.80;54.90;;;;;;5072801;28;20175;-86
2023/02/25 10:57:57;;;;;;;3.13;1.90;;;7.90;53.50;;;;;;5069394;28;20654;-82
2023/02/25 11:00:28;;;;;;;17.10;14.43;;;7.90;52.50;;;;;;5071635;28;20724;-87
2023/02/25 11:02:54;;;;;;;10.37;4.23;;;7.70;52.80;;;;;;5067136;28;20207;-84
2023/02/25 11:05:37;;;;;;;6.00;4.23;;;7.70;53.20;;;;;;5083680;28;20182;-86
2023/02/25 11:08:07;;;;;;;14.43;11.57;;;7.70;53.80;;;;;;5088068;28;20271;-87
2023/02/25 11:10:33;;;;;;;4.50;3.40;;;7.70;54.80;;;;;;5085485;28;20234;-91
2023/02/25 11:13:02;;;;;;;7.07;5.73;;;7.80;53.60;;;;;;5068636;28;20188;-86
2023/02/25 11:15:37;;;;;;;18.00;16.40;;;7.70;53.90;;;;;;5072611;28;20191;-86
2023/02/25 11:18:03;;;;;;;8.70;6.90;;;7.60;54.60;;;;;;5073004;28;20190;-86
2023/02/25 11:20:31;;;;;;;3.03;2.73;;;7.70;55.00;;;;;;5066159;28;20200;-86
2023/02/25 11:22:58;;;;;;;6.53;1.90;;;7.80;53.40;;;;;;5071179;28;20227;-87
2023/02/25 11:25:35;;;;;;;3.63;2.30;;;7.90;52.70;;;;;;5074037;28;20203;-85
2023/02/25 11:28:02;;;;;;;4.17;2.40;;;8.00;52.20;;;;;;5070625;28;20246;-83
2023/02/25 11:30:32;;;;;;;2.93;1.90;;;7.90;53.80;;;;;;5049019;28;20212;-85
2023/02/25 11:32:58;;;;;;;2.23;2.10;;;8.00;53.30;;;;;;5068593;28;20188;-83
2023/02/25 11:35:29;;;;;;;4.17;2.00;;;8.00;52.50;;;;;;5074474;28;20194;-87
2023/02/25 11:37:57;;;;;;;4.07;2.37;;;8.10;51.90;;;;;;5069444;28;20451;-85
2023/02/25 11:40:39;;;;;;;2.23;1.80;;;8.00;51.00;;;;;;5067335;28;20204;-84
2023/02/25 11:43:05;;;;;;;2.53;2.07;;;8.00;51.30;;;;;;5051862;28;20218;-84
2023/02/25 11:45:37;;;;;;;2.63;1.90;;;8.00;51.20;;;;;;5070956;28;20176;-87
2023/02/25 11:48:15;;;;;;;3.70;2.90;;;8.00;52.30;;;;;;5070940;28;20167;-86
2023/02/25 11:51:08;;;;;;;4.80;1.73;;;7.90;52.80;;;;;;5066732;28;20233;-86
2023/02/25 11:53:55;;;;;;;4.70;2.03;;;7.80;53.90;;;;;;5071094;28;20784;-85
2023/02/25 11:56:29;;;;;;;3.30;2.00;;;7.80;53.20;;;;;;5068444;28;20198;-85
2023/02/25 11:59:31;;;;;;;4.80;2.37;;;7.80;54.60;;;;;;5070023;28;20190;-88
2023/02/25 12:02:22;;;;;;;7.57;2.03;;;7.50;56.00;;;;;;5068609;28;20197;-82
2023/02/25 12:05:06;;;;;;;10.77;4.37;;;7.40;57.30;;;;;;5048531;28;20191;-89
2023/02/25 12:07:58;;;;;;;6.50;2.67;;;7.60;56.70;;;;;;5065912;28;20211;-89
2023/02/25 12:10:50;;;;;;;4.07;2.30;;;7.70;56.90;;;;;;5064584;28;20215;-85
2023/02/25 12:13:47;;;;;;;3.42;1.90;;;7.70;55.50;;;;;;5067800;28;20428;-88
2023/02/25 12:16:41;;;;;;;4.13;2.07;;;7.80;55.70;;;;;;5069233;28;20175;-83
2023/02/25 12:19:30;;;;;;;5.70;2.00;;;7.90;55.10;;;;;;5073387;28;20176;-85
2023/02/25 12:22:11;;;;;;;4.33;2.30;;;8.00;53.60;;;;;;5053043;28;20211;-86
2023/02/25 12:25:05;;;;;;;3.50;2.17;;;8.10;53.60;;;;;;5071309;28;20280;-87
2023/02/25 12:27:57;;;;;;;3.57;2.07;;;8.20;54.40;;;;;;5072470;28;20290;-86
2023/02/25 12:30:42;;;;;;;4.07;2.07;;;8.30;54.20;;;;;;5068731;28;20219;-84
2023/02/25 12:33:41;;;;;;;5.17;2.47;;;8.40;53.20;;;;;;5071667;28;20194;-87
2023/02/25 12:36:28;;;;;;;17.90;4.20;;;8.40;53.00;;;;;;5070212;28;20685;-85
2023/02/25 12:39:14;;;;;;;5.77;2.33;;;8.50;53.60;;;;;;5071271;28;20284;-85
2023/02/25 12:42:14;;;;;;;4.67;2.60;;;8.50;53.00;;;;;;5070122;28;20277;-87
2023/02/25 12:44:40;;;;;;;3.97;1.97;;;8.40;53.10;;;;;;5072026;28;20244;-84
2023/02/25 12:47:37;;;;;;;2.57;1.93;;;8.40;53.20;;;;;;5066208;28;20941;-87
2023/02/25 12:50:22;;;;;;;4.30;2.40;;;8.20;53.00;;;;;;5028161;28;20239;-90
2023/02/25 12:52:56;;;;;;;4.20;2.03;;;8.20;53.20;;;;;;5064663;28;20242;-89
2023/02/25 12:55:36;;;;;;;2.93;2.20;;;8.20;54.00;;;;;;5062266;28;20179;-85
2023/02/25 12:58:27;;;;;;;4.70;2.43;;;8.10;54.00;;;;;;5066021;28;20240;-87
2023/02/25 13:01:08;;;;;;;4.80;2.53;;;8.20;54.50;;;;;;5046253;28;20234;-85
2023/02/25 13:04:00;;;;;;;3.83;2.40;;;8.40;53.10;;;;;;5070403;28;20316;-88
2023/02/25 13:06:28;;;;;;;5.23;3.30;;;8.60;52.30;;;;;;5068251;28;20548;-85
2023/02/25 13:09:39;;;;;;;10.70;8.10;;;8.70;51.30;;;;;;5068025;28;20213;-86
2023/02/25 13:12:18;;;;;;;8.57;6.03;;;8.90;51.80;;;;;;5048356;28;20200;-87
2023/02/25 13:15:04;;;;;;;7.73;5.80;;;8.80;51.40;;;;;;5070180;28;20206;-87